Time;durP1;ratioP1;P1;durP2;ratioP2;P2;SDS_P1;SDS_P2;PMS_P1;PMS_P2;Temp;Humidity;BMP_temperature;BMP_pressure;BME280_temperature;BME280_humidity;BME280_pressure;Samples;Min_cycle;Max_cycle;Signal;HPM_P1;HPM_P2
2023/12/06 00:01:07;;;;;;;107.75;100.47;;;;;;;0.56;100.00;101182.72;4926776;29;20048;-71
2023/12/06 00:03:35;;;;;;;108.15;101.75;;;;;;;0.67;100.00;101187.88;4932617;29;20044;-71
2023/12/06 00:06:02;;;;;;;105.30;98.75;;;;;;;0.49;100.00;101195.50;4932297;29;20051;-72
2023/12/06 00:08:29;;;;;;;119.47;112.70;;;;;;;0.62;100.00;101190.06;4928086;29;20070;-71
2023/12/06 00:10:59;;;;;;;123.15;116.18;;;;;;;0.55;100.00;101183.69;4931661;29;20106;-72
2023/12/06 00:13:26;;;;;;;128.60;120.75;;;;;;;0.56;100.00;101194.00;4933580;29;20063;-71
2023/12/06 00:15:53;;;;;;;53.92;49.50;;;;;;;0.32;100.00;101181.22;4927687;29;20067;-71
2023/12/06 00:18:20;;;;;;;54.50;50.50;;;;;;;0.31;100.00;101187.41;4933025;28;20192;-71
2023/12/06 00:20:49;;;;;;;65.82;61.25;;;;;;;0.56;100.00;101185.34;4928061;29;20056;-72
2023/12/06 00:23:18;;;;;;;130.88;122.18;;;;;;;0.64;100.00;101186.34;4933548;29;20131;-72
2023/12/06 00:25:45;;;;;;;124.07;116.38;;;;;;;0.70;100.00;101182.41;4931302;29;20055;-72
2023/12/06 00:28:12;;;;;;;112.45;104.88;;;;;;;0.62;100.00;101183.03;4931505;29;20059;-72
2023/12/06 00:30:39;;;;;;;141.82;132.43;;;;;;;0.68;100.00;101176.47;4926864;29;20468;-71
2023/12/06 00:33:07;;;;;;;128.68;120.72;;;;;;;0.81;100.00;101177.06;4931296;29;20048;-77
2023/12/06 00:35:37;;;;;;;120.82;112.85;;;;;;;0.79;100.00;101167.72;4932345;29;20047;-77
2023/12/06 00:38:06;;;;;;;121.15;113.75;;;;;;;0.73;100.00;101162.97;4937712;29;20047;-77
2023/12/06 00:40:33;;;;;;;120.47;112.90;;;;;;;0.97;100.00;101170.50;4928661;29;20434;-77
2023/12/06 00:43:00;;;;;;;107.75;100.90;;;;;;;0.84;100.00;101162.91;4933312;29;20066;-77
2023/12/06 00:45:30;;;;;;;122.88;114.97;;;;;;;0.99;100.00;101164.19;4931775;29;20055;-77
2023/12/06 00:48:10;;;;;;;130.55;122.18;;;;;;;0.82;100.00;101152.59;4929471;29;20055;-77
2023/12/06 00:50:37;;;;;;;116.32;107.78;;;;;;;0.91;100.00;101154.41;4921634;29;20084;-78
2023/12/06 00:53:05;;;;;;;109.20;102.50;;;;;;;1.23;100.00;101160.41;4932026;29;20503;-76
2023/12/06 00:55:33;;;;;;;117.30;109.47;;;;;;;0.73;100.00;101156.00;4932131;29;20083;-77
2023/12/06 00:58:03;;;;;;;129.38;121.18;;;;;;;1.13;100.00;101157.78;4931646;29;20079;-77
2023/12/06 01:00:30;;;;;;;128.77;120.55;;;;;;;0.98;100.00;101153.88;4932427;29;20488;-77
2023/12/06 01:02:56;;;;;;;118.15;110.05;;;;;;;0.95;100.00;101154.16;4923503;29;20048;-77
2023/12/06 01:05:23;;;;;;;122.60;114.00;;;;;;;0.81;100.00;101147.47;4932032;29;20460;-77
2023/12/06 01:07:50;;;;;;;66.82;61.20;;;;;;;0.84;100.00;101147.22;4932209;29;20444;-76
2023/12/06 01:10:19;;;;;;;55.90;51.63;;;;;;;0.73;100.00;101148.16;4920141;29;20079;-77
2023/12/06 01:12:46;;;;;;;57.97;53.53;;;;;;;0.82;100.00;101146.53;4917257;29;20517;-77
2023/12/06 01:15:22;;;;;;;61.85;56.67;;;;;;;0.74;100.00;101136.72;4929579;29;20070;-77
2023/12/06 01:17:51;;;;;;;68.63;63.38;;;;;;;0.76;100.00;101132.19;4921412;29;20520;-77
2023/12/06 01:20:18;;;;;;;62.45;57.58;;;;;;;0.75;100.00;101122.66;4937663;29;20051;-72
2023/12/06 01:22:45;;;;;;;60.20;55.47;;;;;;;0.71;100.00;101134.38;4930958;29;20425;-73
2023/12/06 01:25:16;;;;;;;63.85;58.30;;;;;;;0.83;100.00;101130.69;4929100;29;20055;-72
2023/12/06 01:27:45;;;;;;;60.80;55.15;;;;;;;0.86;100.00;101127.81;4929431;29;20056;-72
2023/12/06 01:30:13;;;;;;;54.90;50.78;;;;;;;0.74;100.00;101126.25;4933102;29;20059;-72
2023/12/06 01:32:40;;;;;;;64.32;59.58;;;;;;;0.79;100.00;101124.09;4930969;29;20074;-77
2023/12/06 01:35:08;;;;;;;63.70;58.92;;;;;;;0.95;100.00;101123.56;4930785;29;20039;-77
2023/12/06 01:37:36;;;;;;;60.58;55.88;;;;;;;0.92;100.00;101123.84;4931966;29;20440;-77
2023/12/06 01:40:04;;;;;;;59.20;54.55;;;;;;;1.05;100.00;101120.97;4930513;29;20413;-76
2023/12/06 01:42:31;;;;;;;61.97;57.33;;;;;;;1.01;100.00;101109.97;4933752;29;20496;-77
2023/12/06 01:44:59;;;;;;;64.45;59.35;;;;;;;0.93;100.00;101103.75;4912819;29;20800;-77
2023/12/06 01:47:27;;;;;;;56.35;51.45;;;;;;;0.85;100.00;101109.66;4928963;29;20436;-77
2023/12/06 01:49:57;;;;;;;54.92;50.63;;;;;;;1.00;100.00;101104.84;4925956;29;20052;-77
2023/12/06 01:52:25;;;;;;;54.10;50.00;;;;;;;0.72;100.00;101106.44;4931872;29;20809;-77
2023/12/06 01:54:52;;;;;;;51.00;47.00;;;;;;;0.87;100.00;101107.72;4926138;29;20059;-77
2023/12/06 01:57:19;;;;;;;52.67;48.67;;;;;;;1.16;100.00;101107.78;4920964;29;20048;-77
2023/12/06 01:59:47;;;;;;;50.85;46.70;;;;;;;1.13;100.00;101106.28;4929394;29;20052;-71
2023/12/06 02:02:15;;;;;;;69.55;64.60;;;;;;;1.24;100.00;101104.50;4928330;29;20051;-71
2023/12/06 02:04:45;;;;;;;50.85;46.92;;;;;;;1.15;100.00;101098.31;4930479;29;20546;-71
2023/12/06 02:07:22;;;;;;;52.63;48.65;;;;;;;1.02;100.00;101079.41;4931470;29;20234;-77
2023/12/06 02:09:49;;;;;;;59.00;54.60;;;;;;;1.07;100.00;101077.22;4919173;29;20059;-77
2023/12/06 02:12:15;;;;;;;66.93;61.17;;;;;;;0.78;100.00;101074.50;4924786;29;20054;-71
2023/12/06 02:14:42;;;;;;;58.63;54.13;;;;;;;0.96;100.00;101065.06;4928264;29;20048;-77
2023/12/06 02:17:10;;;;;;;60.00;55.40;;;;;;;0.97;100.00;101063.25;4926240;29;20058;-77
2023/12/06 02:19:40;;;;;;;56.72;52.25;;;;;;;1.09;100.00;101060.41;4920382;29;20048;-77
2023/12/06 02:22:08;;;;;;;57.95;53.00;;;;;;;0.81;100.00;101055.94;4932238;29;20048;-71
2023/12/06 02:24:37;;;;;;;51.80;47.63;;;;;;;0.61;100.00;101048.06;4934734;29;20062;-77
2023/12/06 02:27:07;;;;;;;61.00;55.78;;;;;;;0.64;100.00;101047.78;4927729;29;20055;-72
2023/12/06 02:29:34;;;;;;;63.17;58.47;;;;;;;0.87;100.00;101044.94;4932693;29;20431;-77
2023/12/06 02:32:01;;;;;;;67.70;62.42;;;;;;;0.97;100.00;101050.19;4930331;29;20079;-77
2023/12/06 02:34:28;;;;;;;52.15;48.15;;;;;;;1.02;100.00;101040.97;4935718;29;20440;-76
2023/12/06 02:37:23;;;;;;;60.05;54.90;;;;;;;1.07;100.00;101032.72;4936667;29;20074;-77
2023/12/06 02:39:53;;;;;;;85.97;79.60;;;;;;;1.15;100.00;101043.34;4936594;29;20063;-77
2023/12/06 02:42:21;;;;;;;68.32;63.42;;;;;;;1.01;100.00;101044.56;4934294;29;20047;-77
2023/12/06 02:44:48;;;;;;;51.03;47.10;;;;;;;0.91;100.00;101044.56;4933782;29;20471;-77
2023/12/06 02:47:16;;;;;;;53.92;49.88;;;;;;;0.93;100.00;101049.63;4934398;29;20055;-77
2023/12/06 02:49:44;;;;;;;58.08;53.80;;;;;;;0.84;100.00;101043.41;4932248;29;20294;-77
2023/12/06 02:52:13;;;;;;;65.03;59.97;;;;;;;0.77;100.00;101041.50;4934723;29;20043;-77
2023/12/06 02:54:40;;;;;;;62.92;56.95;;;;;;;1.01;100.00;101038.50;4934385;29;20052;-77
2023/12/06 02:57:13;;;;;;;75.88;70.20;;;;;;;1.01;100.00;101039.34;4934256;29;20455;-77
2023/12/06 02:59:42;;;;;;;63.42;58.75;;;;;;;1.26;100.00;101037.97;4935258;29;20071;-77
2023/12/06 03:02:18;;;;;;;51.67;47.60;;;;;;;1.50;100.00;101040.16;4933302;29;20054;-77
2023/12/06 03:04:46;;;;;;;54.47;50.10;;;;;;;1.35;100.00;101042.38;4931966;29;20048;-77
2023/12/06 03:07:13;;;;;;;51.20;46.80;;;;;;;1.40;100.00;101033.31;4934058;29;20052;-77
2023/12/06 03:09:41;;;;;;;49.65;45.65;;;;;;;1.51;100.00;101036.59;4926813;29;20055;-77
2023/12/06 03:12:10;;;;;;;53.97;49.72;;;;;;;1.58;100.00;101036.88;4932687;29;20048;-77
2023/12/06 03:14:38;;;;;;;52.30;47.83;;;;;;;1.68;100.00;101029.00;4928233;29;20420;-77
2023/12/06 03:17:08;;;;;;;47.95;44.15;;;;;;;1.73;100.00;101035.47;4933631;29;20062;-77
2023/12/06 03:19:42;;;;;;;58.22;53.83;;;;;;;1.80;100.00;101039.16;4936385;28;20048;-77
2023/12/06 03:22:09;;;;;;;61.03;56.38;;;;;;;1.54;100.00;101046.81;4938676;29;20060;-77
2023/12/06 03:24:36;;;;;;;98.07;91.60;;;;;;;1.69;100.00;101048.97;4933471;29;20582;-77
2023/12/06 03:27:03;;;;;;;112.05;104.53;;;;;;;1.63;100.00;101047.72;4929471;29;20071;-77
2023/12/06 03:29:30;;;;;;;104.53;97.63;;;;;;;1.75;100.00;101038.75;4928411;29;20056;-72
2023/12/06 03:31:58;;;;;;;102.85;95.95;;;;;;;1.82;100.00;101039.88;4930160;29;20985;-71
2023/12/06 03:34:26;;;;;;;93.45;87.47;;;;;;;1.87;100.00;101041.22;4930403;29;20044;-72
2023/12/06 03:36:54;;;;;;;92.95;86.90;;;;;;;1.86;100.00;101037.78;4933208;29;20063;-72
2023/12/06 03:39:21;;;;;;;93.88;87.60;;;;;;;1.80;100.00;101033.94;4932608;29;20063;-72
2023/12/06 03:41:48;;;;;;;91.82;85.03;;;;;;;1.82;100.00;101036.41;4923375;29;20478;-71
2023/12/06 03:44:15;;;;;;;97.65;91.45;;;;;;;1.71;100.00;101045.25;4930739;29;20058;-71
2023/12/06 03:46:42;;;;;;;104.25;97.68;;;;;;;1.82;100.00;101037.25;4932960;29;20091;-71
2023/12/06 03:49:17;;;;;;;87.13;81.07;;;;;;;1.91;100.00;101045.22;4926125;29;20048;-72
2023/12/06 03:51:45;;;;;;;89.20;83.22;;;;;;;1.92;100.00;101046.88;4927573;29;20064;-71
2023/12/06 03:54:13;;;;;;;96.95;90.80;;;;;;;1.80;100.00;101044.41;4932023;29;20048;-72
2023/12/06 03:56:41;;;;;;;104.68;98.22;;;;;;;1.91;100.00;101034.75;4930659;29;20059;-71
2023/12/06 03:59:09;;;;;;;79.03;73.72;;;;;;;1.66;100.00;101023.88;4929742;29;20043;-72
2023/12/06 04:01:40;;;;;;;51.85;47.75;;;;;;;1.55;100.00;101024.88;4926855;29;20149;-72
2023/12/06 04:04:07;;;;;;;61.45;56.30;;;;;;;1.68;100.00;101021.97;4924184;29;20055;-72
2023/12/06 04:06:34;;;;;;;61.83;57.22;;;;;;;1.65;100.00;101024.84;4928471;29;20439;-72
2023/12/06 04:09:02;;;;;;;56.75;51.55;;;;;;;1.80;100.00;101026.06;4925182;29;20051;-72
2023/12/06 04:11:29;;;;;;;60.90;55.58;;;;;;;1.86;100.00;101026.47;4928347;29;20547;-72
2023/12/06 04:13:58;;;;;;;62.60;57.55;;;;;;;1.91;100.00;101032.97;4927787;29;20056;-72
2023/12/06 04:16:29;;;;;;;53.90;49.58;;;;;;;2.05;100.00;101027.25;4916720;29;20066;-76
2023/12/06 04:18:55;;;;;;;48.60;44.67;;;;;;;2.12;100.00;101039.78;4932013;29;20052;-72
2023/12/06 04:21:22;;;;;;;48.40;44.50;;;;;;;2.19;100.00;101031.22;4930320;29;20048;-72
2023/12/06 04:23:49;;;;;;;50.30;46.25;;;;;;;2.22;100.00;101036.16;4932290;29;20401;-73
2023/12/06 04:26:17;;;;;;;45.03;41.35;;;;;;;2.25;100.00;101029.81;4933033;29;20073;-77
2023/12/06 04:28:44;;;;;;;43.45;39.90;;;;;;;2.18;100.00;101034.81;4931746;29;20822;-77
2023/12/06 04:31:11;;;;;;;45.00;41.05;;;;;;;2.20;100.00;101034.66;4925383;29;20054;-71
2023/12/06 04:33:41;;;;;;;49.53;44.28;;;;;;;2.24;100.00;101033.38;4932152;29;20175;-72
2023/12/06 04:36:09;;;;;;;45.78;42.00;;;;;;;2.27;100.00;101041.81;4923889;29;20048;-72
2023/12/06 04:38:35;;;;;;;48.00;44.13;;;;;;;2.27;100.00;101036.56;4922146;29;20451;-72
2023/12/06 04:41:02;;;;;;;43.20;39.70;;;;;;;2.30;100.00;101043.31;4925635;29;20052;-72
2023/12/06 04:43:31;;;;;;;48.47;44.15;;;;;;;2.28;100.00;101043.44;4931586;29;20799;-73
2023/12/06 04:45:57;;;;;;;42.13;38.38;;;;;;;2.25;100.00;101043.72;4930158;29;20059;-72
2023/12/06 04:48:24;;;;;;;68.70;63.70;;;;;;;2.27;100.00;101041.81;4926471;29;20440;-71
2023/12/06 04:50:52;;;;;;;78.70;73.50;;;;;;;2.36;100.00;101034.88;4929306;29;20058;-72
2023/12/06 04:53:19;;;;;;;46.60;41.85;;;;;;;2.27;100.00;101046.22;4899796;28;20051;-71
2023/12/06 04:55:46;;;;;;;53.70;49.70;;;;;;;2.33;100.00;101037.78;4929327;29;20056;-72
2023/12/06 04:58:13;;;;;;;53.13;49.22;;;;;;;2.19;100.00;101038.25;4929067;29;20126;-72
2023/12/06 05:00:43;;;;;;;61.33;56.72;;;;;;;2.27;100.00;101044.44;4931502;29;20052;-72
2023/12/06 05:03:15;;;;;;;51.88;47.80;;;;;;;4.53;100.00;101043.22;4926401;29;20055;-73
2023/12/06 05:05:46;;;;;;;56.50;52.00;;;;;;;2.64;100.00;101050.63;4927848;29;20139;-73
2023/12/06 05:08:13;;;;;;;63.20;58.67;;;;;;;2.44;100.00;101045.44;4931587;29;20054;-72
2023/12/06 05:10:40;;;;;;;58.20;54.20;;;;;;;2.42;100.00;101050.03;4924279;29;20047;-78
2023/12/06 05:13:07;;;;;;;50.63;46.67;;;;;;;2.35;100.00;101042.88;4932164;29;20051;-77
2023/12/06 05:15:51;;;;;;;47.58;43.97;;;;;;;2.28;100.00;101042.63;4929769;29;20052;-77
2023/12/06 05:18:18;;;;;;;52.13;47.92;;;;;;;2.34;100.00;101049.09;4916617;29;20060;-77
2023/12/06 05:20:45;;;;;;;54.03;50.03;;;;;;;2.41;100.00;101048.34;4927680;29;20623;-77
2023/12/06 05:23:12;;;;;;;52.20;48.10;;;;;;;2.43;100.00;101042.97;4927566;29;20456;-78
2023/12/06 05:25:39;;;;;;;49.58;45.67;;;;;;;2.43;100.00;101037.75;4926012;29;20505;-78
2023/12/06 05:28:06;;;;;;;56.15;52.00;;;;;;;2.39;100.00;101033.75;4931107;29;20052;-72
2023/12/06 05:30:33;;;;;;;54.00;49.67;;;;;;;2.40;100.00;101030.97;4919900;29;20056;-71
2023/12/06 05:33:01;;;;;;;54.95;50.40;;;;;;;2.38;100.00;101030.28;4920582;29;20056;-73
2023/12/06 05:35:28;;;;;;;61.00;56.55;;;;;;;2.44;100.00;101031.50;4928104;29;20424;-73
2023/12/06 05:37:55;;;;;;;53.72;49.63;;;;;;;2.37;100.00;101025.22;4912702;29;20063;-72
2023/12/06 05:40:22;;;;;;;50.85;47.05;;;;;;;2.46;100.00;101025.16;4930115;29;20059;-72
2023/12/06 05:42:50;;;;;;;54.17;50.08;;;;;;;2.51;100.00;101022.09;4911812;29;20052;-72
2023/12/06 05:45:17;;;;;;;51.92;48.03;;;;;;;2.46;100.00;101033.03;4932341;29;20572;-72
2023/12/06 05:47:44;;;;;;;51.35;47.35;;;;;;;2.54;100.00;101032.28;4934619;29;20587;-77
2023/12/06 05:50:15;;;;;;;51.83;47.72;;;;;;;2.58;100.00;101033.66;4932409;29;20058;-77
2023/12/06 05:52:42;;;;;;;46.28;42.75;;;;;;;2.64;100.00;101035.69;4922360;29;20405;-73
2023/12/06 05:55:09;;;;;;;44.30;40.83;;;;;;;2.63;100.00;101038.44;4933654;29;20059;-72
2023/12/06 05:57:36;;;;;;;44.22;40.58;;;;;;;2.74;100.00;101031.22;4927620;29;20060;-72
2023/12/06 06:00:12;;;;;;;47.00;43.30;;;;;;;2.63;100.00;101031.44;4917518;29;20060;-72
2023/12/06 06:02:39;;;;;;;43.90;40.50;;;;;;;2.81;100.00;101036.69;4934114;29;20052;-72
2023/12/06 06:05:10;;;;;;;40.83;37.63;;;;;;;2.88;100.00;101036.94;4934003;29;20459;-72
2023/12/06 06:07:39;;;;;;;44.17;40.78;;;;;;;2.83;100.00;101036.56;4928049;29;20579;-72
2023/12/06 06:10:08;;;;;;;54.90;50.25;;;;;;;2.86;100.00;101034.47;4923165;29;20078;-72
2023/12/06 06:12:37;;;;;;;48.53;44.65;;;;;;;4.54;100.00;101048.34;4926478;29;20672;-73
2023/12/06 06:15:05;;;;;;;52.25;48.35;;;;;;;3.30;100.00;101034.56;4929310;29;20748;-72
2023/12/06 06:17:32;;;;;;;54.78;50.75;;;;;;;3.15;100.00;101042.16;4925740;29;20052;-72
2023/12/06 06:19:59;;;;;;;50.80;47.10;;;;;;;3.07;100.00;101038.63;4926133;29;20138;-73
2023/12/06 06:22:26;;;;;;;52.17;48.05;;;;;;;5.01;100.00;101042.56;4933892;29;20052;-73
2023/12/06 06:24:55;;;;;;;54.85;50.78;;;;;;;3.63;100.00;101035.66;4934507;29;20043;-73
2023/12/06 06:27:22;;;;;;;56.50;52.00;;;;;;;3.49;100.00;101030.13;4932357;29;20059;-73
2023/12/06 06:29:49;;;;;;;51.58;47.78;;;;;;;3.57;100.00;101033.66;4924569;29;20058;-75
2023/12/06 06:32:16;;;;;;;50.35;46.53;;;;;;;3.64;100.00;101042.56;4924062;29;20906;-75
2023/12/06 06:34:43;;;;;;;52.45;48.40;;;;;;;3.63;100.00;101042.69;4919283;29;20052;-75
2023/12/06 06:37:10;;;;;;;54.85;50.65;;;;;;;3.71;100.00;101044.56;4934089;29;20077;-75
2023/12/06 06:39:41;;;;;;;55.13;50.92;;;;;;;3.80;100.00;101046.28;4931571;29;20435;-75
2023/12/06 06:42:14;;;;;;;60.95;56.42;;;;;;;3.85;100.00;101042.22;4938079;29;20044;-76
2023/12/06 06:44:47;;;;;;;59.85;55.15;;;;;;;4.00;100.00;101044.28;4931750;29;20500;-76
2023/12/06 06:47:14;;;;;;;68.75;63.70;;;;;;;4.17;100.00;101043.38;4919436;29;20060;-76
2023/12/06 06:49:41;;;;;;;61.35;56.65;;;;;;;4.35;100.00;101040.69;4933904;29;20130;-75
2023/12/06 06:52:08;;;;;;;65.25;60.35;;;;;;;4.46;100.00;101040.41;4931437;29;20154;-75
2023/12/06 06:54:35;;;;;;;67.38;62.25;;;;;;;4.57;100.00;101044.59;4931708;29;20682;-73
2023/12/06 06:57:04;;;;;;;69.10;63.65;;;;;;;4.73;100.00;101049.06;4932983;29;20567;-76
2023/12/06 06:59:33;;;;;;;78.50;72.70;;;;;;;4.85;100.00;101050.44;4934468;29;20052;-72
2023/12/06 07:02:00;;;;;;;70.40;64.93;;;;;;;4.90;100.00;101053.41;4933008;29;20106;-73
2023/12/06 07:04:27;;;;;;;67.90;62.80;;;;;;;4.90;100.00;101058.69;4940874;29;20052;-73
2023/12/06 07:06:55;;;;;;;67.45;62.28;;;;;;;4.91;100.00;101046.34;4933668;28;20153;-73
2023/12/06 07:09:22;;;;;;;68.78;63.47;;;;;;;4.98;100.00;101050.78;4926042;29;20056;-73
2023/12/06 07:11:49;;;;;;;65.35;60.25;;;;;;;5.01;100.00;101045.19;4918466;29;20051;-74
2023/12/06 07:14:16;;;;;;;67.88;62.72;;;;;;;5.08;100.00;101052.44;4924170;29;20058;-73
2023/12/06 07:16:46;;;;;;;69.13;64.03;;;;;;;4.97;100.00;101045.69;4930142;29;20095;-73
2023/12/06 07:19:13;;;;;;;73.28;67.97;;;;;;;4.99;100.00;101046.34;4926828;29;20044;-73
2023/12/06 07:21:40;;;;;;;75.65;70.13;;;;;;;5.00;100.00;101053.28;4923534;29;20547;-73
2023/12/06 07:41:22;;;;;;;116.63;109.13;;;;;;;4.95;100.00;101059.00;5088207;28;20123;-80
2023/12/06 07:43:50;;;;;;;108.22;101.05;;;;;;;4.99;100.00;101057.72;5107361;28;20052;-79
2023/12/06 07:46:21;;;;;;;127.82;119.45;;;;;;;5.03;100.00;101056.41;5102437;28;20062;-79
2023/12/06 07:48:52;;;;;;;131.50;122.80;;;;;;;5.13;100.00;101055.44;5106675;28;20405;-79
2023/12/06 07:51:19;;;;;;;121.32;113.18;;;;;;;5.10;100.00;101058.38;5092786;28;20051;-79
2023/12/06 07:53:46;;;;;;;75.82;69.93;;;;;;;5.10;100.00;101053.94;5089811;28;20704;-80
2023/12/06 07:56:12;;;;;;;76.90;70.30;;;;;;;5.12;100.00;101056.41;5087509;28;20047;-80
2023/12/06 07:58:41;;;;;;;78.45;72.40;;;;;;;5.15;100.00;101062.19;5096957;28;20501;-79
2023/12/06 08:01:09;;;;;;;119.63;111.75;;;;;;;5.18;100.00;101053.13;5101951;28;20508;-79
2023/12/06 08:03:36;;;;;;;122.97;114.90;;;;;;;5.26;100.00;101043.44;5101525;28;20044;-79
2023/12/06 08:06:05;;;;;;;116.53;108.85;;;;;;;5.42;100.00;101028.63;5088093;28;20040;-80
2023/12/06 08:08:37;;;;;;;119.80;111.90;;;;;;;5.55;100.00;101031.59;5099184;28;20040;-79
2023/12/06 08:11:04;;;;;;;110.45;103.15;;;;;;;5.67;100.00;101045.25;5094739;28;20044;-79
2023/12/06 08:13:31;;;;;;;115.50;108.10;;;;;;;5.77;100.00;101042.44;5099723;28;20048;-80
2023/12/06 08:15:59;;;;;;;112.90;105.40;;;;;;;5.79;100.00;101030.75;5108560;28;20055;-80
2023/12/06 08:18:26;;;;;;;120.88;113.20;;;;;;;5.88;100.00;101042.09;5112001;28;20033;-80
2023/12/06 08:20:59;;;;;;;116.30;108.93;;;;;;;5.84;100.00;101054.81;5113160;28;20046;-75
2023/12/06 08:23:26;;;;;;;101.95;95.15;;;;;;;5.74;100.00;101054.97;5101811;28;20054;-75
2023/12/06 08:25:53;;;;;;;100.60;93.70;;;;;;;5.83;100.00;101061.03;5108851;28;20044;-79
2023/12/06 08:28:20;;;;;;;109.68;102.32;;;;;;;5.89;100.00;101056.94;5101921;28;20055;-76
2023/12/06 08:30:47;;;;;;;117.35;109.57;;;;;;;5.98;100.00;101058.59;5098710;28;20047;-75
2023/12/06 08:33:23;;;;;;;105.07;97.97;;;;;;;5.91;100.00;101061.03;5090745;28;20048;-75
2023/12/06 08:35:51;;;;;;;103.63;96.70;;;;;;;5.90;100.00;101062.06;5094593;28;20056;-75
2023/12/06 08:38:18;;;;;;;89.07;82.68;;;;;;;5.91;100.00;101054.97;5070689;28;20052;-75
2023/12/06 08:40:45;;;;;;;78.38;72.43;;;;;;;5.90;100.00;101067.31;5070015;28;20056;-75
2023/12/06 08:43:12;;;;;;;74.85;69.15;;;;;;;5.88;100.00;101061.38;5079421;28;20052;-76
2023/12/06 08:45:42;;;;;;;113.28;105.80;;;;;;;5.95;100.00;101049.19;5081213;28;20509;-75
2023/12/06 08:48:12;;;;;;;109.57;102.13;;;;;;;5.97;100.00;101051.69;5070764;28;20056;-76
2023/12/06 08:50:40;;;;;;;110.05;102.65;;;;;;;6.01;100.00;101046.91;5087058;28;20456;-76
2023/12/06 08:53:08;;;;;;;107.55;100.05;;;;;;;5.94;100.00;101055.47;5086957;28;20052;-76
2023/12/06 08:55:35;;;;;;;99.82;93.22;;;;;;;6.03;100.00;101056.28;5080475;28;20107;-76
2023/12/06 08:58:03;;;;;;;106.20;99.10;;;;;;;6.07;100.00;101048.84;5081892;28;20044;-76
2023/12/06 09:00:32;;;;;;;119.72;112.13;;;;;;;6.09;100.00;101045.06;5074151;28;20048;-76
2023/12/06 09:03:01;;;;;;;114.93;107.45;;;;;;;6.24;100.00;101042.56;5079677;28;20058;-76
2023/12/06 09:05:29;;;;;;;106.90;99.50;;;;;;;6.38;100.00;101033.09;5083717;28;20055;-76
2023/12/06 09:07:58;;;;;;;102.43;95.43;;;;;;;6.40;100.00;101029.31;5085177;28;20536;-79
2023/12/06 09:10:28;;;;;;;78.53;72.65;;;;;;;6.38;100.00;101030.47;5085890;28;20063;-76
2023/12/06 09:12:56;;;;;;;79.30;73.40;;;;;;;6.32;100.00;101020.59;5077437;28;20109;-76
2023/12/06 09:15:23;;;;;;;71.00;65.60;;;;;;;6.25;100.00;101017.00;5080108;28;20433;-76
2023/12/06 09:17:52;;;;;;;83.72;77.88;;;;;;;6.16;100.00;101005.66;5077400;28;20052;-75
2023/12/06 09:20:19;;;;;;;85.55;79.53;;;;;;;6.22;100.00;101015.50;5081116;28;20060;-76
2023/12/06 09:22:46;;;;;;;96.38;89.78;;;;;;;6.52;100.00;101015.75;5080852;28;20067;-76
2023/12/06 09:25:23;;;;;;;55.85;51.55;;;;;;;6.81;100.00;101012.47;5083428;28;20080;-75
2023/12/06 09:27:51;;;;;;;66.80;61.90;;;;;;;6.51;100.00;100996.44;5088488;28;20060;-75
2023/12/06 09:30:18;;;;;;;76.78;71.18;;;;;;;6.66;100.00;101004.47;5083271;28;20044;-76
2023/12/06 09:32:45;;;;;;;75.15;69.55;;;;;;;6.57;100.00;101000.22;5081049;28;20047;-76
2023/12/06 09:35:12;;;;;;;75.20;69.68;;;;;;;6.65;100.00;100990.41;5074358;28;20040;-75
2023/12/06 09:37:38;;;;;;;74.65;69.00;;;;;;;6.76;100.00;100988.41;5072152;28;20520;-76
2023/12/06 09:40:06;;;;;;;77.22;71.55;;;;;;;6.81;100.00;100978.97;5076684;28;20041;-76
2023/12/06 09:43:01;;;;;;;74.63;69.13;;;;;;;6.78;100.00;100978.50;5074338;28;20512;-75
2023/12/06 09:45:29;;;;;;;69.60;64.50;;;;;;;6.70;100.00;100978.53;5081052;28;20049;-80
2023/12/06 09:47:56;;;;;;;66.68;61.47;;;;;;;6.76;100.00;100972.56;5082825;28;20588;-80
2023/12/06 09:50:24;;;;;;;60.83;56.10;;;;;;;6.67;100.00;100981.53;5093887;28;20048;-80
2023/12/06 09:52:52;;;;;;;55.13;50.92;;;;;;;6.86;100.00;100976.59;5084133;28;20112;-80
2023/12/06 09:55:20;;;;;;;50.70;46.25;;;;;;;6.99;100.00;100975.19;5087611;28;20047;-80
2023/12/06 09:57:48;;;;;;;45.17;41.47;;;;;;;7.07;100.00;100964.56;5098057;28;20040;-80
2023/12/06 10:00:19;;;;;;;42.95;39.38;;;;;;;7.16;100.00;100954.78;5088903;28;20074;-81
2023/12/06 10:02:53;;;;;;;38.72;35.53;;;;;;;7.18;100.00;100955.44;5087430;28;20275;-80
2023/12/06 10:05:20;;;;;;;42.47;38.97;;;;;;;7.19;100.00;100946.50;5084831;28;20109;-76
2023/12/06 10:07:48;;;;;;;39.58;36.38;;;;;;;7.16;100.00;100938.94;5072899;28;20048;-76
2023/12/06 10:10:18;;;;;;;34.63;31.77;;;;;;;7.44;100.00;100934.69;5077728;28;20052;-75
2023/12/06 10:12:49;;;;;;;33.70;30.95;;;;;;;7.39;100.00;100930.97;5073770;28;20056;-75
2023/12/06 10:15:18;;;;;;;35.88;32.78;;;;;;;7.24;100.00;100939.69;5085408;28;20058;-75
2023/12/06 10:17:45;;;;;;;41.35;36.25;;;;;;;7.22;100.00;100935.56;5077806;28;20122;-75
2023/12/06 10:20:13;;;;;;;32.45;29.65;;;;;;;7.51;100.00;100929.53;5079047;28;20051;-76
2023/12/06 10:22:41;;;;;;;34.47;31.38;;;;;;;7.21;100.00;100933.94;5081229;28;20070;-75
2023/12/06 10:25:08;;;;;;;36.70;33.47;;;;;;;7.34;100.00;100920.94;5081560;28;20048;-75
2023/12/06 10:27:36;;;;;;;38.90;35.70;;;;;;;7.13;100.00;100918.16;5075989;28;20052;-75
2023/12/06 10:30:03;;;;;;;69.55;64.80;;;;;;;6.93;100.00;100923.09;5079413;28;20048;-75
2023/12/06 10:32:32;;;;;;;60.83;56.72;;;;;;;7.19;100.00;100926.19;5087476;28;20108;-80
2023/12/06 10:35:00;;;;;;;57.58;53.67;;;;;;;7.24;100.00;100912.44;5086513;28;20054;-80
2023/12/06 10:37:33;;;;;;;72.32;67.63;;;;;;;7.31;100.00;100919.47;5096345;28;20044;-79
2023/12/06 10:40:09;;;;;;;66.22;61.80;;;;;;;7.28;100.00;100919.00;5091783;28;20090;-80
2023/12/06 10:42:37;;;;;;;57.55;53.65;;;;;;;7.31;100.00;100921.28;5082499;28;20052;-75
2023/12/06 10:45:05;;;;;;;45.33;41.85;;;;;;;7.14;100.00;100917.13;5080054;28;20059;-75
2023/12/06 10:47:45;;;;;;;43.00;39.72;;;;;;;7.19;100.00;100917.44;5077513;28;20053;-75
2023/12/06 10:50:12;;;;;;;63.55;59.35;;;;;;;7.20;100.00;100912.00;5084028;28;20052;-75
2023/12/06 10:52:41;;;;;;;67.80;63.40;;;;;;;7.14;100.00;100920.63;5082831;28;20048;-76
2023/12/06 10:55:11;;;;;;;65.35;61.05;;;;;;;7.00;100.00;100914.28;5092850;28;20040;-80
2023/12/06 10:57:40;;;;;;;58.85;54.85;;;;;;;7.07;100.00;100915.22;5095888;28;20520;-80
2023/12/06 11:00:15;;;;;;;62.53;58.22;;;;;;;7.15;100.00;100910.88;5096137;28;20058;-80
2023/12/06 11:02:43;;;;;;;67.95;63.45;;;;;;;7.13;100.00;100912.88;5094300;28;20047;-80
2023/12/06 11:05:11;;;;;;;75.30;70.30;;;;;;;7.13;100.00;100910.22;5082857;28;20044;-80
2023/12/06 11:07:54;;;;;;;71.35;66.70;;;;;;;7.15;100.00;100900.31;5075805;28;20136;-80
2023/12/06 11:10:38;;;;;;;76.18;71.18;;;;;;;7.03;100.00;100902.56;5088222;28;20086;-80
2023/12/06 11:13:16;;;;;;;58.78;54.67;;;;;;;7.07;100.00;100895.91;5086185;28;20040;-80
2023/12/06 11:15:55;;;;;;;57.53;53.67;;;;;;;7.07;100.00;100896.72;5092373;28;20052;-80
2023/12/06 11:18:26;;;;;;;54.55;50.67;;;;;;;6.86;100.00;100907.13;5099462;28;20510;-79
2023/12/06 11:21:00;;;;;;;53.35;49.53;;;;;;;7.04;100.00;100905.00;5082933;28;20498;-75
2023/12/06 11:23:33;;;;;;;53.63;49.80;;;;;;;7.00;100.00;100908.19;5078120;28;20052;-75
2023/12/06 11:26:01;;;;;;;41.75;38.67;;;;;;;7.13;100.00;100897.84;5079888;28;20049;-75
2023/12/06 11:28:28;;;;;;;38.50;35.72;;;;;;;7.11;100.00;100900.66;5071084;28;20064;-75
2023/12/06 11:30:56;;;;;;;41.65;38.75;;;;;;;7.18;100.00;100890.19;5080225;28;20079;-75